Available data for KAFO from the past hour
Metar
KAFO 182235Z AUTO 34011KT 10SM CLR 12/M02 A3034 RMK AO2

22:35 UTC

Wind: 340° 11kt

Visibility: 10 SM

Sky:

Temp: 12 deg C / 53.6 deg F

Dewpoint: -2 deg C / 28.4 deg F

Pressure: 30.34 inHg

The next Board Meeting is: June , 2018           The next Annual Meeting is: Jul 2018

IMG_1868

Please help us keep our taxiways free of debris. The taxiways are only for aircraft.